sensor_id;sensor_type;location;lat;lon;timestamp;P1;durP1;ratioP1;P2;durP2;ratioP2
25653;SDS011;13511;48.622;9.230;2022-07-29T00:02:13;17.58;;;16.10;;
25653;SDS011;13511;48.622;9.230;2022-07-29T00:04:39;18.08;;;16.65;;
25653;SDS011;13511;48.622;9.230;2022-07-29T00:07:05;16.15;;;14.95;;
25653;SDS011;13511;48.622;9.230;2022-07-29T00:09:31;19.35;;;17.85;;
25653;SDS011;13511;48.622;9.230;2022-07-29T00:11:58;17.33;;;16.02;;
25653;SDS011;13511;48.622;9.230;2022-07-29T00:14:25;17.60;;;16.25;;
25653;SDS011;13511;48.622;9.230;2022-07-29T00:16:51;19.40;;;18.00;;
25653;SDS011;13511;48.622;9.230;2022-07-29T00:19:17;17.95;;;16.58;;
25653;SDS011;13511;48.622;9.230;2022-07-29T00:21:43;19.83;;;17.88;;
25653;SDS011;13511;48.622;9.230;2022-07-29T00:24:09;18.75;;;17.10;;
25653;SDS011;13511;48.622;9.230;2022-07-29T00:26:38;18.90;;;17.40;;
25653;SDS011;13511;48.622;9.230;2022-07-29T00:29:04;17.98;;;16.60;;
25653;SDS011;13511;48.622;9.230;2022-07-29T00:31:30;16.77;;;15.23;;
25653;SDS011;13511;48.622;9.230;2022-07-29T00:33:56;18.45;;;16.95;;
25653;SDS011;13511;48.622;9.230;2022-07-29T00:36:22;15.82;;;14.68;;
25653;SDS011;13511;48.622;9.230;2022-07-29T00:38:49;15.90;;;14.82;;
25653;SDS011;13511;48.622;9.230;2022-07-29T00:41:15;18.60;;;17.17;;
25653;SDS011;13511;48.622;9.230;2022-07-29T00:43:41;16.55;;;15.15;;
25653;SDS011;13511;48.622;9.230;2022-07-29T00:46:07;17.67;;;16.25;;
25653;SDS011;13511;48.622;9.230;2022-07-29T00:48:33;17.73;;;16.33;;
25653;SDS011;13511;48.622;9.230;2022-07-29T00:51:00;16.38;;;15.18;;
25653;SDS011;13511;48.622;9.230;2022-07-29T00:53:27;17.88;;;16.30;;
25653;SDS011;13511;48.622;9.230;2022-07-29T00:55:53;18.40;;;17.10;;
25653;SDS011;13511;48.622;9.230;2022-07-29T00:58:20;17.25;;;15.95;;
25653;SDS011;13511;48.622;9.230;2022-07-29T01:00:46;16.92;;;15.63;;
25653;SDS011;13511;48.622;9.230;2022-07-29T01:03:12;16.77;;;15.57;;
25653;SDS011;13511;48.622;9.230;2022-07-29T01:05:38;15.80;;;14.48;;
25653;SDS011;13511;48.622;9.230;2022-07-29T01:08:06;15.65;;;14.38;;
25653;SDS011;13511;48.622;9.230;2022-07-29T01:10:32;15.38;;;13.90;;
25653;SDS011;13511;48.622;9.230;2022-07-29T01:12:59;15.55;;;14.38;;
25653;SDS011;13511;48.622;9.230;2022-07-29T01:15:26;14.95;;;14.00;;
25653;SDS011;13511;48.622;9.230;2022-07-29T01:18:04;16.33;;;15.07;;
25653;SDS011;13511;48.622;9.230;2022-07-29T01:28:12;20.30;;;15.65;;
25653;SDS011;13511;48.622;9.230;2022-07-29T01:30:43;23.25;;;14.50;;
25653;SDS011;13511;48.622;9.230;2022-07-29T01:33:11;16.40;;;15.30;;
25653;SDS011;13511;48.622;9.230;2022-07-29T01:35:59;16.25;;;15.05;;
25653;SDS011;13511;48.622;9.230;2022-07-29T01:38:27;17.27;;;15.50;;
25653;SDS011;13511;48.622;9.230;2022-07-29T01:40:56;13.25;;;12.55;;
25653;SDS011;13511;48.622;9.230;2022-07-29T01:43:27;14.88;;;13.93;;
25653;SDS011;13511;48.622;9.230;2022-07-29T01:46:11;15.23;;;14.02;;
25653;SDS011;13511;48.622;9.230;2022-07-29T01:48:40;14.40;;;13.35;;
25653;SDS011;13511;48.622;9.230;2022-07-29T01:51:16;21.63;;;15.43;;
25653;SDS011;13511;48.622;9.230;2022-07-29T01:53:47;12.75;;;11.93;;
25653;SDS011;13511;48.622;9.230;2022-07-29T01:56:14;12.45;;;11.65;;
25653;SDS011;13511;48.622;9.230;2022-07-29T01:58:42;16.52;;;11.45;;
25653;SDS011;13511;48.622;9.230;2022-07-29T02:01:09;13.88;;;12.60;;
25653;SDS011;13511;48.622;9.230;2022-07-29T02:03:37;25.65;;;12.20;;
25653;SDS011;13511;48.622;9.230;2022-07-29T02:06:04;23.48;;;12.95;;
25653;SDS011;13511;48.622;9.230;2022-07-29T02:08:31;12.95;;;11.88;;
25653;SDS011;13511;48.622;9.230;2022-07-29T02:10:59;12.27;;;11.32;;
25653;SDS011;13511;48.622;9.230;2022-07-29T02:13:26;11.73;;;10.90;;
25653;SDS011;13511;48.622;9.230;2022-07-29T02:15:53;11.48;;;10.68;;
25653;SDS011;13511;48.622;9.230;2022-07-29T02:18:20;10.30;;;9.60;;
25653;SDS011;13511;48.622;9.230;2022-07-29T02:20:49;12.48;;;11.32;;
25653;SDS011;13511;48.622;9.230;2022-07-29T02:23:18;11.50;;;10.57;;
25653;SDS011;13511;48.622;9.230;2022-07-29T02:25:44;11.75;;;11.05;;
25653;SDS011;13511;48.622;9.230;2022-07-29T02:28:12;25.17;;;13.77;;
25653;SDS011;13511;48.622;9.230;2022-07-29T02:30:39;14.05;;;12.68;;
25653;SDS011;13511;48.622;9.230;2022-07-29T02:33:06;11.30;;;10.40;;
25653;SDS011;13511;48.622;9.230;2022-07-29T02:35:33;10.73;;;10.05;;
25653;SDS011;13511;48.622;9.230;2022-07-29T02:37:59;12.63;;;10.52;;
25653;SDS011;13511;48.622;9.230;2022-07-29T02:40:44;15.07;;;10.40;;
25653;SDS011;13511;48.622;9.230;2022-07-29T02:43:11;10.18;;;9.25;;
25653;SDS011;13511;48.622;9.230;2022-07-29T02:45:37;10.55;;;9.85;;
25653;SDS011;13511;48.622;9.230;2022-07-29T02:48:05;11.38;;;10.57;;
25653;SDS011;13511;48.622;9.230;2022-07-29T02:50:33;10.25;;;9.55;;
25653;SDS011;13511;48.622;9.230;2022-07-29T02:53:05;8.77;;;8.20;;
25653;SDS011;13511;48.622;9.230;2022-07-29T02:55:37;9.80;;;9.18;;
25653;SDS011;13511;48.622;9.230;2022-07-29T03:00:38;10.35;;;9.48;;
25653;SDS011;13511;48.622;9.230;2022-07-29T03:03:07;9.52;;;8.88;;
25653;SDS011;13511;48.622;9.230;2022-07-29T03:05:34;10.80;;;10.00;;
25653;SDS011;13511;48.622;9.230;2022-07-29T03:08:02;14.52;;;10.18;;
25653;SDS011;13511;48.622;9.230;2022-07-29T03:10:28;11.73;;;10.82;;
25653;SDS011;13511;48.622;9.230;2022-07-29T03:12:55;10.98;;;10.25;;
25653;SDS011;13511;48.622;9.230;2022-07-29T03:15:21;12.27;;;10.95;;
25653;SDS011;13511;48.622;9.230;2022-07-29T03:17:47;11.13;;;10.32;;
25653;SDS011;13511;48.622;9.230;2022-07-29T03:20:13;12.30;;;11.27;;
25653;SDS011;13511;48.622;9.230;2022-07-29T03:22:40;12.40;;;11.48;;
25653;SDS011;13511;48.622;9.230;2022-07-29T03:25:12;10.90;;;9.95;;
25653;SDS011;13511;48.622;9.230;2022-07-29T03:27:38;11.95;;;10.93;;
25653;SDS011;13511;48.622;9.230;2022-07-29T03:30:04;10.20;;;9.50;;
25653;SDS011;13511;48.622;9.230;2022-07-29T03:32:31;9.98;;;9.02;;
25653;SDS011;13511;48.622;9.230;2022-07-29T03:34:57;11.45;;;10.35;;
25653;SDS011;13511;48.622;9.230;2022-07-29T03:37:23;10.15;;;9.45;;
25653;SDS011;13511;48.622;9.230;2022-07-29T03:39:49;9.82;;;9.00;;
25653;SDS011;13511;48.622;9.230;2022-07-29T03:42:15;9.65;;;8.95;;
25653;SDS011;13511;48.622;9.230;2022-07-29T03:44:43;10.70;;;8.77;;
25653;SDS011;13511;48.622;9.230;2022-07-29T03:47:09;9.65;;;8.82;;
25653;SDS011;13511;48.622;9.230;2022-07-29T03:49:36;9.20;;;8.55;;
25653;SDS011;13511;48.622;9.230;2022-07-29T03:52:03;9.60;;;8.73;;
25653;SDS011;13511;48.622;9.230;2022-07-29T03:54:29;9.25;;;8.60;;
25653;SDS011;13511;48.622;9.230;2022-07-29T03:56:55;9.65;;;8.93;;
25653;SDS011;13511;48.622;9.230;2022-07-29T03:59:24;10.90;;;10.10;;
25653;SDS011;13511;48.622;9.230;2022-07-29T04:01:51;10.25;;;9.25;;
25653;SDS011;13511;48.622;9.230;2022-07-29T04:04:17;10.48;;;9.65;;
25653;SDS011;13511;48.622;9.230;2022-07-29T04:06:44;9.35;;;8.60;;
25653;SDS011;13511;48.622;9.230;2022-07-29T04:09:11;8.80;;;8.02;;
25653;SDS011;13511;48.622;9.230;2022-07-29T04:11:40;13.38;;;9.43;;
25653;SDS011;13511;48.622;9.230;2022-07-29T04:14:07;11.20;;;10.00;;
25653;SDS011;13511;48.622;9.230;2022-07-29T04:16:33;9.52;;;8.80;;
25653;SDS011;13511;48.622;9.230;2022-07-29T04:18:59;9.98;;;9.18;;
25653;SDS011;13511;48.622;9.230;2022-07-29T04:21:25;8.40;;;7.75;;
25653;SDS011;13511;48.622;9.230;2022-07-29T04:23:51;9.00;;;8.40;;
25653;SDS011;13511;48.622;9.230;2022-07-29T04:26:17;11.13;;;9.55;;
25653;SDS011;13511;48.622;9.230;2022-07-29T04:28:43;9.85;;;9.15;;
25653;SDS011;13511;48.622;9.230;2022-07-29T04:31:10;10.05;;;9.35;;
25653;SDS011;13511;48.622;9.230;2022-07-29T04:33:36;11.10;;;10.02;;
25653;SDS011;13511;48.622;9.230;2022-07-29T04:36:02;10.05;;;9.32;;
25653;SDS011;13511;48.622;9.230;2022-07-29T04:38:28;11.55;;;10.63;;
25653;SDS011;13511;48.622;9.230;2022-07-29T04:40:54;9.88;;;9.18;;
25653;SDS011;13511;48.622;9.230;2022-07-29T04:43:20;9.60;;;8.90;;
25653;SDS011;13511;48.622;9.230;2022-07-29T04:45:46;10.38;;;9.32;;
25653;SDS011;13511;48.622;9.230;2022-07-29T04:48:12;11.20;;;9.38;;
25653;SDS011;13511;48.622;9.230;2022-07-29T04:50:38;10.38;;;9.45;;
25653;SDS011;13511;48.622;9.230;2022-07-29T04:53:04;10.55;;;9.75;;
25653;SDS011;13511;48.622;9.230;2022-07-29T04:55:30;10.38;;;9.38;;
25653;SDS011;13511;48.622;9.230;2022-07-29T04:57:56;8.65;;;7.95;;
25653;SDS011;13511;48.622;9.230;2022-07-29T05:00:22;9.13;;;8.52;;
25653;SDS011;13511;48.622;9.230;2022-07-29T05:02:49;9.50;;;8.75;;
25653;SDS011;13511;48.622;9.230;2022-07-29T05:05:15;11.60;;;10.27;;
25653;SDS011;13511;48.622;9.230;2022-07-29T05:07:41;12.25;;;10.93;;
25653;SDS011;13511;48.622;9.230;2022-07-29T05:10:07;9.35;;;8.45;;
25653;SDS011;13511;48.622;9.230;2022-07-29T05:12:33;11.23;;;10.32;;
25653;SDS011;13511;48.622;9.230;2022-07-29T05:14:59;12.38;;;9.90;;
25653;SDS011;13511;48.622;9.230;2022-07-29T05:17:26;8.77;;;7.95;;
25653;SDS011;13511;48.622;9.230;2022-07-29T05:19:52;9.00;;;8.00;;
25653;SDS011;13511;48.622;9.230;2022-07-29T05:22:18;9.25;;;8.55;;
25653;SDS011;13511;48.622;9.230;2022-07-29T05:24:44;9.70;;;8.70;;
25653;SDS011;13511;48.622;9.230;2022-07-29T05:27:10;9.38;;;8.73;;
25653;SDS011;13511;48.622;9.230;2022-07-29T05:29:36;9.50;;;8.07;;
25653;SDS011;13511;48.622;9.230;2022-07-29T05:32:03;8.85;;;8.18;;
25653;SDS011;13511;48.622;9.230;2022-07-29T05:34:29;7.93;;;7.47;;
25653;SDS011;13511;48.622;9.230;2022-07-29T05:36:55;7.93;;;7.32;;
25653;SDS011;13511;48.622;9.230;2022-07-29T05:39:22;9.10;;;8.32;;
25653;SDS011;13511;48.622;9.230;2022-07-29T05:41:48;8.18;;;7.50;;
25653;SDS011;13511;48.622;9.230;2022-07-29T05:44:14;7.63;;;7.03;;
25653;SDS011;13511;48.622;9.230;2022-07-29T05:46:40;8.63;;;7.95;;
25653;SDS011;13511;48.622;9.230;2022-07-29T05:49:06;7.28;;;6.85;;
25653;SDS011;13511;48.622;9.230;2022-07-29T05:51:33;7.15;;;6.60;;
25653;SDS011;13511;48.622;9.230;2022-07-29T05:53:59;7.22;;;6.72;;
25653;SDS011;13511;48.622;9.230;2022-07-29T05:56:25;6.90;;;6.43;;
25653;SDS011;13511;48.622;9.230;2022-07-29T05:58:51;6.45;;;6.05;;
25653;SDS011;13511;48.622;9.230;2022-07-29T06:01:17;7.18;;;6.68;;
25653;SDS011;13511;48.622;9.230;2022-07-29T06:03:43;7.47;;;6.78;;
25653;SDS011;13511;48.622;9.230;2022-07-29T06:06:09;7.40;;;5.97;;
25653;SDS011;13511;48.622;9.230;2022-07-29T06:08:35;6.60;;;6.13;;
25653;SDS011;13511;48.622;9.230;2022-07-29T06:11:02;7.80;;;7.20;;
25653;SDS011;13511;48.622;9.230;2022-07-29T06:13:28;6.53;;;6.03;;
25653;SDS011;13511;48.622;9.230;2022-07-29T06:15:55;6.65;;;6.15;;
25653;SDS011;13511;48.622;9.230;2022-07-29T06:18:21;7.88;;;7.25;;
25653;SDS011;13511;48.622;9.230;2022-07-29T06:20:50;7.60;;;7.00;;
25653;SDS011;13511;48.622;9.230;2022-07-29T06:23:17;6.47;;;6.07;;
25653;SDS011;13511;48.622;9.230;2022-07-29T06:25:43;6.20;;;5.80;;
25653;SDS011;13511;48.622;9.230;2022-07-29T06:28:09;6.18;;;5.80;;
25653;SDS011;13511;48.622;9.230;2022-07-29T06:30:35;6.20;;;5.70;;
25653;SDS011;13511;48.622;9.230;2022-07-29T06:33:01;6.07;;;5.32;;
25653;SDS011;13511;48.622;9.230;2022-07-29T06:35:27;5.72;;;5.43;;
25653;SDS011;13511;48.622;9.230;2022-07-29T06:37:53;5.65;;;5.15;;
25653;SDS011;13511;48.622;9.230;2022-07-29T06:40:19;6.00;;;5.50;;
25653;SDS011;13511;48.622;9.230;2022-07-29T06:43:04;5.55;;;5.22;;
25653;SDS011;13511;48.622;9.230;2022-07-29T06:45:33;5.70;;;5.25;;
25653;SDS011;13511;48.622;9.230;2022-07-29T06:48:00;5.47;;;5.00;;
25653;SDS011;13511;48.622;9.230;2022-07-29T06:50:26;5.35;;;5.05;;
25653;SDS011;13511;48.622;9.230;2022-07-29T06:52:52;5.13;;;4.93;;
25653;SDS011;13511;48.622;9.230;2022-07-29T06:55:18;5.45;;;5.05;;
25653;SDS011;13511;48.622;9.230;2022-07-29T06:57:44;5.35;;;5.13;;
25653;SDS011;13511;48.622;9.230;2022-07-29T07:00:10;6.00;;;5.60;;
25653;SDS011;13511;48.622;9.230;2022-07-29T07:02:36;4.75;;;4.55;;
25653;SDS011;13511;48.622;9.230;2022-07-29T07:05:02;8.20;;;5.20;;
25653;SDS011;13511;48.622;9.230;2022-07-29T07:07:30;5.40;;;5.00;;
25653;SDS011;13511;48.622;9.230;2022-07-29T07:09:56;5.47;;;5.07;;
25653;SDS011;13511;48.622;9.230;2022-07-29T07:12:22;4.93;;;4.72;;
25653;SDS011;13511;48.622;9.230;2022-07-29T07:14:48;5.40;;;5.20;;
25653;SDS011;13511;48.622;9.230;2022-07-29T07:17:14;5.20;;;4.90;;
25653;SDS011;13511;48.622;9.230;2022-07-29T07:19:40;5.55;;;5.10;;
25653;SDS011;13511;48.622;9.230;2022-07-29T07:22:06;5.68;;;5.20;;
25653;SDS011;13511;48.622;9.230;2022-07-29T07:24:32;5.45;;;5.15;;
25653;SDS011;13511;48.622;9.230;2022-07-29T07:26:58;6.45;;;4.70;;
25653;SDS011;13511;48.622;9.230;2022-07-29T07:29:24;5.03;;;4.72;;
25653;SDS011;13511;48.622;9.230;2022-07-29T07:31:50;5.22;;;4.82;;
25653;SDS011;13511;48.622;9.230;2022-07-29T07:34:16;5.60;;;5.20;;
25653;SDS011;13511;48.622;9.230;2022-07-29T07:36:42;7.45;;;4.95;;
25653;SDS011;13511;48.622;9.230;2022-07-29T07:39:08;7.40;;;5.00;;
25653;SDS011;13511;48.622;9.230;2022-07-29T07:41:34;4.93;;;4.45;;
25653;SDS011;13511;48.622;9.230;2022-07-29T07:44:00;4.88;;;4.68;;
25653;SDS011;13511;48.622;9.230;2022-07-29T07:46:26;5.50;;;5.10;;
25653;SDS011;13511;48.622;9.230;2022-07-29T07:48:52;4.90;;;4.60;;
25653;SDS011;13511;48.622;9.230;2022-07-29T07:51:18;4.88;;;4.68;;
25653;SDS011;13511;48.622;9.230;2022-07-29T07:53:44;5.53;;;5.15;;
25653;SDS011;13511;48.622;9.230;2022-07-29T07:56:14;5.30;;;4.82;;
25653;SDS011;13511;48.622;9.230;2022-07-29T07:58:40;5.50;;;5.00;;
25653;SDS011;13511;48.622;9.230;2022-07-29T08:01:07;5.70;;;5.30;;
25653;SDS011;13511;48.622;9.230;2022-07-29T08:03:33;5.15;;;4.80;;
25653;SDS011;13511;48.622;9.230;2022-07-29T08:05:59;5.63;;;5.10;;
25653;SDS011;13511;48.622;9.230;2022-07-29T08:08:25;5.38;;;5.07;;
25653;SDS011;13511;48.622;9.230;2022-07-29T08:10:51;5.65;;;5.25;;
25653;SDS011;13511;48.622;9.230;2022-07-29T08:13:17;5.53;;;5.15;;
25653;SDS011;13511;48.622;9.230;2022-07-29T08:15:44;9.32;;;5.50;;
25653;SDS011;13511;48.622;9.230;2022-07-29T08:18:11;5.88;;;5.38;;
25653;SDS011;13511;48.622;9.230;2022-07-29T08:20:37;6.15;;;5.60;;
25653;SDS011;13511;48.622;9.230;2022-07-29T08:23:05;6.15;;;5.30;;
25653;SDS011;13511;48.622;9.230;2022-07-29T08:25:32;6.65;;;5.60;;
25653;SDS011;13511;48.622;9.230;2022-07-29T08:27:58;6.55;;;6.05;;
25653;SDS011;13511;48.622;9.230;2022-07-29T08:30:24;6.43;;;5.97;;
25653;SDS011;13511;48.622;9.230;2022-07-29T08:32:50;6.32;;;5.93;;
25653;SDS011;13511;48.622;9.230;2022-07-29T08:35:18;5.70;;;5.30;;
25653;SDS011;13511;48.622;9.230;2022-07-29T08:37:44;8.23;;;5.63;;
25653;SDS011;13511;48.622;9.230;2022-07-29T08:40:10;5.85;;;5.40;;
25653;SDS011;13511;48.622;9.230;2022-07-29T08:42:36;6.00;;;5.60;;
25653;SDS011;13511;48.622;9.230;2022-07-29T08:45:03;6.50;;;5.88;;
25653;SDS011;13511;48.622;9.230;2022-07-29T08:47:29;6.90;;;5.88;;
25653;SDS011;13511;48.622;9.230;2022-07-29T08:49:55;7.20;;;6.20;;
25653;SDS011;13511;48.622;9.230;2022-07-29T08:52:21;6.03;;;5.65;;
25653;SDS011;13511;48.622;9.230;2022-07-29T08:54:48;8.18;;;6.55;;
25653;SDS011;13511;48.622;9.230;2022-07-29T08:57:15;6.80;;;6.18;;
25653;SDS011;13511;48.622;9.230;2022-07-29T08:59:42;6.50;;;6.00;;
25653;SDS011;13511;48.622;9.230;2022-07-29T09:02:11;6.38;;;5.85;;
25653;SDS011;13511;48.622;9.230;2022-07-29T09:04:39;6.57;;;6.18;;
25653;SDS011;13511;48.622;9.230;2022-07-29T09:07:05;6.70;;;6.13;;
25653;SDS011;13511;48.622;9.230;2022-07-29T09:09:32;6.53;;;5.90;;
25653;SDS011;13511;48.622;9.230;2022-07-29T09:11:58;8.13;;;6.10;;
25653;SDS011;13511;48.622;9.230;2022-07-29T09:14:24;6.15;;;5.85;;
25653;SDS011;13511;48.622;9.230;2022-07-29T09:16:52;6.55;;;6.03;;
25653;SDS011;13511;48.622;9.230;2022-07-29T09:19:26;7.13;;;6.50;;
25653;SDS011;13511;48.622;9.230;2022-07-29T09:21:52;6.82;;;6.32;;
25653;SDS011;13511;48.622;9.230;2022-07-29T09:27:00;9.60;;;6.13;;
25653;SDS011;13511;48.622;9.230;2022-07-29T09:29:26;6.85;;;5.68;;
25653;SDS011;13511;48.622;9.230;2022-07-29T09:31:53;6.90;;;6.38;;
25653;SDS011;13511;48.622;9.230;2022-07-29T09:34:26;6.53;;;6.05;;
25653;SDS011;13511;48.622;9.230;2022-07-29T09:36:56;7.22;;;6.32;;
25653;SDS011;13511;48.622;9.230;2022-07-29T09:39:30;7.28;;;6.30;;
25653;SDS011;13511;48.622;9.230;2022-07-29T09:41:58;6.57;;;6.18;;
25653;SDS011;13511;48.622;9.230;2022-07-29T09:44:24;7.10;;;6.55;;
25653;SDS011;13511;48.622;9.230;2022-07-29T09:46:58;6.28;;;5.72;;
25653;SDS011;13511;48.622;9.230;2022-07-29T09:49:27;6.78;;;6.18;;
25653;SDS011;13511;48.622;9.230;2022-07-29T09:52:27;6.65;;;6.07;;
25653;SDS011;13511;48.622;9.230;2022-07-29T09:54:46;6.82;;;6.43;;
25653;SDS011;13511;48.622;9.230;2022-07-29T09:57:28;10.35;;;6.15;;
25653;SDS011;13511;48.622;9.230;2022-07-29T09:59:58;7.13;;;6.43;;
25653;SDS011;13511;48.622;9.230;2022-07-29T10:02:27;7.22;;;6.55;;
25653;SDS011;13511;48.622;9.230;2022-07-29T10:04:53;7.03;;;6.45;;
25653;SDS011;13511;48.622;9.230;2022-07-29T10:07:19;7.50;;;6.78;;
25653;SDS011;13511;48.622;9.230;2022-07-29T10:09:55;8.15;;;6.55;;
25653;SDS011;13511;48.622;9.230;2022-07-29T10:12:21;7.28;;;6.68;;
25653;SDS011;13511;48.622;9.230;2022-07-29T10:14:48;7.72;;;7.10;;
25653;SDS011;13511;48.622;9.230;2022-07-29T10:17:14;6.97;;;6.10;;
25653;SDS011;13511;48.622;9.230;2022-07-29T10:19:41;7.80;;;7.10;;
25653;SDS011;13511;48.622;9.230;2022-07-29T10:22:08;6.90;;;6.20;;
25653;SDS011;13511;48.622;9.230;2022-07-29T10:24:34;7.50;;;6.90;;
25653;SDS011;13511;48.622;9.230;2022-07-29T10:27:02;7.70;;;6.57;;
25653;SDS011;13511;48.622;9.230;2022-07-29T10:29:29;7.40;;;6.70;;
25653;SDS011;13511;48.622;9.230;2022-07-29T10:34:30;7.78;;;7.10;;
25653;SDS011;13511;48.622;9.230;2022-07-29T10:42:17;6.75;;;6.25;;
25653;SDS011;13511;48.622;9.230;2022-07-29T10:44:43;7.65;;;6.88;;
25653;SDS011;13511;48.622;9.230;2022-07-29T10:47:24;7.20;;;6.60;;
25653;SDS011;13511;48.622;9.230;2022-07-29T10:49:57;6.88;;;6.38;;
25653;SDS011;13511;48.622;9.230;2022-07-29T10:52:24;7.63;;;7.05;;
25653;SDS011;13511;48.622;9.230;2022-07-29T10:54:52;6.75;;;6.10;;
25653;SDS011;13511;48.622;9.230;2022-07-29T11:07:28;7.78;;;6.35;;
25653;SDS011;13511;48.622;9.230;2022-07-29T11:15:08;7.00;;;6.20;;
25653;SDS011;13511;48.622;9.230;2022-07-29T11:23:22;8.35;;;6.68;;
25653;SDS011;13511;48.622;9.230;2022-07-29T11:29:03;9.55;;;7.10;;
25653;SDS011;13511;48.622;9.230;2022-07-29T11:31:45;6.75;;;6.30;;
25653;SDS011;13511;48.622;9.230;2022-07-29T11:34:24;7.63;;;6.97;;
25653;SDS011;13511;48.622;9.230;2022-07-29T11:37:35;11.13;;;7.70;;
25653;SDS011;13511;48.622;9.230;2022-07-29T11:47:26;12.40;;;8.57;;
25653;SDS011;13511;48.622;9.230;2022-07-29T11:49:53;11.45;;;8.73;;
25653;SDS011;13511;48.622;9.230;2022-07-29T11:52:19;10.82;;;6.38;;
25653;SDS011;13511;48.622;9.230;2022-07-29T11:54:50;7.15;;;6.45;;
25653;SDS011;13511;48.622;9.230;2022-07-29T11:57:17;8.75;;;6.50;;
25653;SDS011;13511;48.622;9.230;2022-07-29T11:59:45;7.70;;;6.10;;
25653;SDS011;13511;48.622;9.230;2022-07-29T12:02:11;8.90;;;5.93;;
25653;SDS011;13511;48.622;9.230;2022-07-29T12:04:50;6.40;;;5.80;;
25653;SDS011;13511;48.622;9.230;2022-07-29T12:07:17;10.15;;;5.60;;
25653;SDS011;13511;48.622;9.230;2022-07-29T12:09:49;11.38;;;6.75;;
25653;SDS011;13511;48.622;9.230;2022-07-29T12:12:17;7.80;;;7.00;;
25653;SDS011;13511;48.622;9.230;2022-07-29T12:14:43;6.93;;;6.38;;
25653;SDS011;13511;48.622;9.230;2022-07-29T12:17:28;7.53;;;6.47;;
25653;SDS011;13511;48.622;9.230;2022-07-29T12:19:54;6.72;;;6.13;;
25653;SDS011;13511;48.622;9.230;2022-07-29T12:22:24;6.43;;;5.82;;
25653;SDS011;13511;48.622;9.230;2022-07-29T12:24:50;6.53;;;5.93;;
25653;SDS011;13511;48.622;9.230;2022-07-29T12:27:17;7.45;;;6.68;;
25653;SDS011;13511;48.622;9.230;2022-07-29T12:29:43;6.43;;;6.05;;
25653;SDS011;13511;48.622;9.230;2022-07-29T12:32:09;7.35;;;6.65;;
25653;SDS011;13511;48.622;9.230;2022-07-29T12:34:35;6.78;;;6.32;;
25653;SDS011;13511;48.622;9.230;2022-07-29T12:37:01;14.32;;;7.82;;
25653;SDS011;13511;48.622;9.230;2022-07-29T12:39:27;9.52;;;6.85;;
25653;SDS011;13511;48.622;9.230;2022-07-29T12:41:53;7.85;;;7.35;;
25653;SDS011;13511;48.622;9.230;2022-07-29T12:44:19;8.27;;;7.07;;
25653;SDS011;13511;48.622;9.230;2022-07-29T12:46:45;8.85;;;7.80;;
25653;SDS011;13511;48.622;9.230;2022-07-29T12:49:26;12.43;;;8.35;;
25653;SDS011;13511;48.622;9.230;2022-07-29T12:51:52;12.38;;;7.80;;
25653;SDS011;13511;48.622;9.230;2022-07-29T12:54:18;8.77;;;7.80;;
25653;SDS011;13511;48.622;9.230;2022-07-29T12:56:45;10.73;;;8.70;;
25653;SDS011;13511;48.622;9.230;2022-07-29T12:59:11;8.48;;;7.25;;
25653;SDS011;13511;48.622;9.230;2022-07-29T13:01:38;9.15;;;7.25;;
25653;SDS011;13511;48.622;9.230;2022-07-29T13:04:04;9.02;;;7.88;;
25653;SDS011;13511;48.622;9.230;2022-07-29T13:06:31;8.02;;;7.22;;
25653;SDS011;13511;48.622;9.230;2022-07-29T13:09:17;17.83;;;8.07;;
25653;SDS011;13511;48.622;9.230;2022-07-29T13:11:47;8.10;;;7.32;;
25653;SDS011;13511;48.622;9.230;2022-07-29T13:14:30;9.63;;;8.82;;
25653;SDS011;13511;48.622;9.230;2022-07-29T13:17:04;9.80;;;7.75;;
25653;SDS011;13511;48.622;9.230;2022-07-29T13:19:34;9.05;;;8.23;;
25653;SDS011;13511;48.622;9.230;2022-07-29T13:22:00;10.23;;;7.68;;
25653;SDS011;13511;48.622;9.230;2022-07-29T13:24:26;9.07;;;8.13;;
25653;SDS011;13511;48.622;9.230;2022-07-29T13:26:52;9.00;;;7.43;;
25653;SDS011;13511;48.622;9.230;2022-07-29T13:29:18;7.57;;;6.82;;
25653;SDS011;13511;48.622;9.230;2022-07-29T13:31:44;7.90;;;7.20;;
25653;SDS011;13511;48.622;9.230;2022-07-29T13:34:10;8.20;;;7.50;;
25653;SDS011;13511;48.622;9.230;2022-07-29T13:36:36;9.25;;;7.13;;
25653;SDS011;13511;48.622;9.230;2022-07-29T13:39:02;9.73;;;8.38;;
25653;SDS011;13511;48.622;9.230;2022-07-29T13:41:29;8.57;;;7.57;;
25653;SDS011;13511;48.622;9.230;2022-07-29T13:43:55;8.85;;;8.05;;
25653;SDS011;13511;48.622;9.230;2022-07-29T13:46:21;8.95;;;8.23;;
25653;SDS011;13511;48.622;9.230;2022-07-29T13:48:47;11.05;;;8.55;;
25653;SDS011;13511;48.622;9.230;2022-07-29T13:51:13;9.27;;;8.63;;
25653;SDS011;13511;48.622;9.230;2022-07-29T13:53:39;9.15;;;8.35;;
25653;SDS011;13511;48.622;9.230;2022-07-29T13:56:05;10.00;;;9.10;;
25653;SDS011;13511;48.622;9.230;2022-07-29T13:58:32;8.88;;;8.18;;
25653;SDS011;13511;48.622;9.230;2022-07-29T14:00:58;9.73;;;8.35;;
25653;SDS011;13511;48.622;9.230;2022-07-29T14:03:24;9.75;;;8.85;;
25653;SDS011;13511;48.622;9.230;2022-07-29T14:05:50;8.98;;;8.20;;
25653;SDS011;13511;48.622;9.230;2022-07-29T14:08:16;10.40;;;8.35;;
25653;SDS011;13511;48.622;9.230;2022-07-29T14:10:42;10.30;;;9.40;;
25653;SDS011;13511;48.622;9.230;2022-07-29T14:13:08;9.20;;;8.40;;
25653;SDS011;13511;48.622;9.230;2022-07-29T14:15:34;9.02;;;8.18;;
25653;SDS011;13511;48.622;9.230;2022-07-29T14:18:00;9.50;;;8.60;;
25653;SDS011;13511;48.622;9.230;2022-07-29T14:20:26;9.18;;;7.85;;
25653;SDS011;13511;48.622;9.230;2022-07-29T14:22:54;8.73;;;8.13;;
25653;SDS011;13511;48.622;9.230;2022-07-29T14:25:21;7.03;;;6.43;;
25653;SDS011;13511;48.622;9.230;2022-07-29T14:27:47;8.10;;;7.45;;
25653;SDS011;13511;48.622;9.230;2022-07-29T14:30:13;7.70;;;6.70;;
25653;SDS011;13511;48.622;9.230;2022-07-29T14:32:39;7.03;;;6.45;;
25653;SDS011;13511;48.622;9.230;2022-07-29T14:35:05;7.40;;;6.80;;
25653;SDS011;13511;48.622;9.230;2022-07-29T14:37:31;7.75;;;7.10;;
25653;SDS011;13511;48.622;9.230;2022-07-29T14:39:57;7.32;;;6.72;;
25653;SDS011;13511;48.622;9.230;2022-07-29T14:42:24;7.53;;;6.88;;
25653;SDS011;13511;48.622;9.230;2022-07-29T14:44:50;7.22;;;6.55;;
25653;SDS011;13511;48.622;9.230;2022-07-29T14:47:16;7.82;;;7.20;;
25653;SDS011;13511;48.622;9.230;2022-07-29T14:49:42;7.30;;;6.65;;
25653;SDS011;13511;48.622;9.230;2022-07-29T14:52:08;8.43;;;7.72;;
25653;SDS011;13511;48.622;9.230;2022-07-29T14:54:34;8.70;;;7.90;;
25653;SDS011;13511;48.622;9.230;2022-07-29T14:57:00;8.70;;;7.93;;
25653;SDS011;13511;48.622;9.230;2022-07-29T14:59:26;8.18;;;7.57;;
25653;SDS011;13511;48.622;9.230;2022-07-29T15:01:52;8.13;;;7.43;;
25653;SDS011;13511;48.622;9.230;2022-07-29T15:04:18;8.90;;;6.55;;
25653;SDS011;13511;48.622;9.230;2022-07-29T15:06:44;8.98;;;7.32;;
25653;SDS011;13511;48.622;9.230;2022-07-29T15:09:10;7.70;;;6.88;;
25653;SDS011;13511;48.622;9.230;2022-07-29T15:11:36;8.48;;;7.72;;
25653;SDS011;13511;48.622;9.230;2022-07-29T15:14:02;8.95;;;7.10;;
25653;SDS011;13511;48.622;9.230;2022-07-29T15:16:28;7.13;;;6.50;;
25653;SDS011;13511;48.622;9.230;2022-07-29T15:18:54;7.20;;;6.22;;
25653;SDS011;13511;48.622;9.230;2022-07-29T15:21:22;7.35;;;6.65;;
25653;SDS011;13511;48.622;9.230;2022-07-29T15:23:48;6.53;;;6.03;;
25653;SDS011;13511;48.622;9.230;2022-07-29T15:26:14;7.50;;;6.75;;
25653;SDS011;13511;48.622;9.230;2022-07-29T15:28:40;10.80;;;6.20;;
25653;SDS011;13511;48.622;9.230;2022-07-29T15:31:06;7.43;;;6.35;;
25653;SDS011;13511;48.622;9.230;2022-07-29T15:33:33;6.70;;;6.10;;
25653;SDS011;13511;48.622;9.230;2022-07-29T15:35:59;6.45;;;5.70;;